sensor_id;sensor_type;location;lat;lon;timestamp;P1;durP1;ratioP1;P2;durP2;ratioP2
19260;SDS011;9764;48.114;11.670;2023-07-13T00:01:12;1.73;;;1.42;;
19260;SDS011;9764;48.114;11.670;2023-07-13T00:03:42;3.28;;;1.52;;
19260;SDS011;9764;48.114;11.670;2023-07-13T00:06:10;2.35;;;1.70;;
19260;SDS011;9764;48.114;11.670;2023-07-13T00:08:39;2.13;;;1.75;;
19260;SDS011;9764;48.114;11.670;2023-07-13T00:11:07;1.88;;;1.40;;
19260;SDS011;9764;48.114;11.670;2023-07-13T00:13:37;2.90;;;1.40;;
19260;SDS011;9764;48.114;11.670;2023-07-13T00:16:06;2.42;;;1.27;;
19260;SDS011;9764;48.114;11.670;2023-07-13T00:18:35;2.72;;;1.42;;
19260;SDS011;9764;48.114;11.670;2023-07-13T00:21:05;1.65;;;1.38;;
19260;SDS011;9764;48.114;11.670;2023-07-13T00:23:35;1.88;;;1.40;;
19260;SDS011;9764;48.114;11.670;2023-07-13T00:26:05;1.95;;;1.50;;
19260;SDS011;9764;48.114;11.670;2023-07-13T00:28:35;1.48;;;1.38;;
19260;SDS011;9764;48.114;11.670;2023-07-13T00:31:05;1.85;;;1.70;;
19260;SDS011;9764;48.114;11.670;2023-07-13T00:33:36;2.38;;;1.30;;
19260;SDS011;9764;48.114;11.670;2023-07-13T00:36:05;1.23;;;1.13;;
19260;SDS011;9764;48.114;11.670;2023-07-13T00:38:37;3.17;;;1.50;;
19260;SDS011;9764;48.114;11.670;2023-07-13T00:41:07;1.75;;;1.42;;
19260;SDS011;9764;48.114;11.670;2023-07-13T00:43:35;2.20;;;1.40;;
19260;SDS011;9764;48.114;11.670;2023-07-13T00:46:15;1.45;;;1.17;;
19260;SDS011;9764;48.114;11.670;2023-07-13T00:48:47;2.63;;;1.55;;
19260;SDS011;9764;48.114;11.670;2023-07-13T00:51:22;1.77;;;1.20;;
19260;SDS011;9764;48.114;11.670;2023-07-13T00:53:56;2.63;;;1.60;;
19260;SDS011;9764;48.114;11.670;2023-07-13T00:56:27;1.65;;;1.17;;
19260;SDS011;9764;48.114;11.670;2023-07-13T00:58:59;1.52;;;1.42;;
19260;SDS011;9764;48.114;11.670;2023-07-13T01:01:29;2.80;;;1.50;;
19260;SDS011;9764;48.114;11.670;2023-07-13T01:03:58;1.88;;;1.42;;
19260;SDS011;9764;48.114;11.670;2023-07-13T01:06:27;2.05;;;1.50;;
19260;SDS011;9764;48.114;11.670;2023-07-13T01:08:58;2.45;;;1.40;;
19260;SDS011;9764;48.114;11.670;2023-07-13T01:11:27;2.22;;;1.30;;
19260;SDS011;9764;48.114;11.670;2023-07-13T01:13:55;2.08;;;1.23;;
19260;SDS011;9764;48.114;11.670;2023-07-13T01:16:24;1.95;;;1.33;;
19260;SDS011;9764;48.114;11.670;2023-07-13T01:18:54;2.03;;;1.25;;
19260;SDS011;9764;48.114;11.670;2023-07-13T01:21:27;1.95;;;1.23;;
19260;SDS011;9764;48.114;11.670;2023-07-13T01:23:58;2.63;;;1.33;;
19260;SDS011;9764;48.114;11.670;2023-07-13T01:26:27;1.55;;;1.20;;
19260;SDS011;9764;48.114;11.670;2023-07-13T01:28:55;1.30;;;1.20;;
19260;SDS011;9764;48.114;11.670;2023-07-13T01:31:24;1.70;;;1.13;;
19260;SDS011;9764;48.114;11.670;2023-07-13T01:33:52;2.80;;;1.80;;
19260;SDS011;9764;48.114;11.670;2023-07-13T01:36:20;1.60;;;1.38;;
19260;SDS011;9764;48.114;11.670;2023-07-13T01:38:50;2.45;;;1.27;;
19260;SDS011;9764;48.114;11.670;2023-07-13T01:41:18;2.08;;;1.13;;
19260;SDS011;9764;48.114;11.670;2023-07-13T01:43:47;1.50;;;1.20;;
19260;SDS011;9764;48.114;11.670;2023-07-13T01:46:16;1.42;;;1.27;;
19260;SDS011;9764;48.114;11.670;2023-07-13T01:48:49;1.30;;;1.13;;
19260;SDS011;9764;48.114;11.670;2023-07-13T01:51:19;1.45;;;1.10;;
19260;SDS011;9764;48.114;11.670;2023-07-13T01:53:47;1.40;;;1.10;;
19260;SDS011;9764;48.114;11.670;2023-07-13T01:56:17;2.00;;;1.35;;
19260;SDS011;9764;48.114;11.670;2023-07-13T01:58:46;1.70;;;1.27;;
19260;SDS011;9764;48.114;11.670;2023-07-13T02:01:15;1.90;;;1.40;;
19260;SDS011;9764;48.114;11.670;2023-07-13T02:03:43;1.85;;;1.15;;
19260;SDS011;9764;48.114;11.670;2023-07-13T02:06:13;2.50;;;0.90;;
19260;SDS011;9764;48.114;11.670;2023-07-13T02:08:41;1.50;;;1.30;;
19260;SDS011;9764;48.114;11.670;2023-07-13T02:11:10;3.10;;;1.30;;
19260;SDS011;9764;48.114;11.670;2023-07-13T02:13:40;4.78;;;1.27;;
19260;SDS011;9764;48.114;11.670;2023-07-13T02:16:09;2.67;;;1.30;;
19260;SDS011;9764;48.114;11.670;2023-07-13T02:18:38;1.42;;;1.17;;
19260;SDS011;9764;48.114;11.670;2023-07-13T02:21:06;2.42;;;1.77;;
19260;SDS011;9764;48.114;11.670;2023-07-13T02:23:34;2.75;;;1.90;;
19260;SDS011;9764;48.114;11.670;2023-07-13T02:26:03;3.25;;;2.03;;
19260;SDS011;9764;48.114;11.670;2023-07-13T02:28:31;3.47;;;1.95;;
19260;SDS011;9764;48.114;11.670;2023-07-13T02:31:08;3.85;;;1.48;;
19260;SDS011;9764;48.114;11.670;2023-07-13T02:37:28;2.03;;;1.60;;
19260;SDS011;9764;48.114;11.670;2023-07-13T02:39:56;2.03;;;1.48;;
19260;SDS011;9764;48.114;11.670;2023-07-13T02:42:24;1.73;;;1.33;;
19260;SDS011;9764;48.114;11.670;2023-07-13T02:44:53;2.45;;;1.38;;
19260;SDS011;9764;48.114;11.670;2023-07-13T02:47:22;2.63;;;1.30;;
19260;SDS011;9764;48.114;11.670;2023-07-13T02:49:52;2.15;;;1.30;;
19260;SDS011;9764;48.114;11.670;2023-07-13T02:52:20;3.13;;;1.27;;
19260;SDS011;9764;48.114;11.670;2023-07-13T02:54:48;1.15;;;1.05;;
19260;SDS011;9764;48.114;11.670;2023-07-13T02:57:17;2.70;;;1.67;;
19260;SDS011;9764;48.114;11.670;2023-07-13T02:59:45;2.83;;;1.33;;
19260;SDS011;9764;48.114;11.670;2023-07-13T03:02:13;4.40;;;1.30;;
19260;SDS011;9764;48.114;11.670;2023-07-13T03:04:43;5.15;;;1.30;;
19260;SDS011;9764;48.114;11.670;2023-07-13T03:07:11;4.32;;;1.60;;
19260;SDS011;9764;48.114;11.670;2023-07-13T03:09:41;2.50;;;1.30;;
19260;SDS011;9764;48.114;11.670;2023-07-13T03:12:09;3.72;;;1.40;;
19260;SDS011;9764;48.114;11.670;2023-07-13T03:14:38;6.35;;;1.40;;
19260;SDS011;9764;48.114;11.670;2023-07-13T03:17:07;3.20;;;1.63;;
19260;SDS011;9764;48.114;11.670;2023-07-13T03:19:38;4.05;;;1.30;;
19260;SDS011;9764;48.114;11.670;2023-07-13T03:22:08;2.08;;;1.50;;
19260;SDS011;9764;48.114;11.670;2023-07-13T03:24:39;4.47;;;1.35;;
19260;SDS011;9764;48.114;11.670;2023-07-13T03:27:07;4.70;;;1.50;;
19260;SDS011;9764;48.114;11.670;2023-07-13T03:29:39;2.97;;;1.45;;
19260;SDS011;9764;48.114;11.670;2023-07-13T03:32:08;1.95;;;1.40;;
19260;SDS011;9764;48.114;11.670;2023-07-13T03:34:37;1.95;;;1.30;;
19260;SDS011;9764;48.114;11.670;2023-07-13T03:37:06;3.67;;;1.73;;
19260;SDS011;9764;48.114;11.670;2023-07-13T03:39:37;2.38;;;1.60;;
19260;SDS011;9764;48.114;11.670;2023-07-13T03:42:06;4.00;;;1.85;;
19260;SDS011;9764;48.114;11.670;2023-07-13T03:44:34;4.93;;;1.83;;
19260;SDS011;9764;48.114;11.670;2023-07-13T03:47:03;2.50;;;1.48;;
19260;SDS011;9764;48.114;11.670;2023-07-13T03:49:35;2.40;;;1.70;;
19260;SDS011;9764;48.114;11.670;2023-07-13T03:52:04;4.47;;;1.77;;
19260;SDS011;9764;48.114;11.670;2023-07-13T03:54:33;2.15;;;1.63;;
19260;SDS011;9764;48.114;11.670;2023-07-13T03:57:03;2.95;;;1.60;;
19260;SDS011;9764;48.114;11.670;2023-07-13T03:59:34;7.85;;;2.00;;
19260;SDS011;9764;48.114;11.670;2023-07-13T04:02:03;2.90;;;1.60;;
19260;SDS011;9764;48.114;11.670;2023-07-13T04:04:33;5.00;;;2.10;;
19260;SDS011;9764;48.114;11.670;2023-07-13T04:07:01;3.63;;;2.00;;
19260;SDS011;9764;48.114;11.670;2023-07-13T04:09:30;3.47;;;1.30;;
19260;SDS011;9764;48.114;11.670;2023-07-13T04:12:04;4.25;;;1.60;;
19260;SDS011;9764;48.114;11.670;2023-07-13T04:14:33;3.03;;;1.63;;
19260;SDS011;9764;48.114;11.670;2023-07-13T04:17:01;2.33;;;1.42;;
19260;SDS011;9764;48.114;11.670;2023-07-13T04:19:29;3.20;;;1.63;;
19260;SDS011;9764;48.114;11.670;2023-07-13T04:21:58;2.45;;;1.58;;
19260;SDS011;9764;48.114;11.670;2023-07-13T04:24:26;4.05;;;1.38;;
19260;SDS011;9764;48.114;11.670;2023-07-13T04:26:54;2.30;;;1.38;;
19260;SDS011;9764;48.114;11.670;2023-07-13T04:29:27;2.05;;;1.40;;
19260;SDS011;9764;48.114;11.670;2023-07-13T04:31:55;2.22;;;1.60;;
19260;SDS011;9764;48.114;11.670;2023-07-13T04:34:24;3.55;;;1.40;;
19260;SDS011;9764;48.114;11.670;2023-07-13T04:36:52;2.72;;;1.30;;
19260;SDS011;9764;48.114;11.670;2023-07-13T04:39:21;3.10;;;1.40;;
19260;SDS011;9764;48.114;11.670;2023-07-13T04:41:49;2.38;;;1.42;;
19260;SDS011;9764;48.114;11.670;2023-07-13T04:44:17;1.83;;;1.20;;
19260;SDS011;9764;48.114;11.670;2023-07-13T04:46:47;3.20;;;1.40;;
19260;SDS011;9764;48.114;11.670;2023-07-13T04:49:15;1.50;;;1.30;;
19260;SDS011;9764;48.114;11.670;2023-07-13T04:51:44;2.17;;;1.17;;
19260;SDS011;9764;48.114;11.670;2023-07-13T04:54:12;1.60;;;1.30;;
19260;SDS011;9764;48.114;11.670;2023-07-13T04:56:41;2.45;;;1.30;;
19260;SDS011;9764;48.114;11.670;2023-07-13T04:59:09;2.03;;;1.30;;
19260;SDS011;9764;48.114;11.670;2023-07-13T05:01:37;1.98;;;1.30;;
19260;SDS011;9764;48.114;11.670;2023-07-13T05:04:08;2.35;;;1.38;;
19260;SDS011;9764;48.114;11.670;2023-07-13T05:06:37;2.50;;;1.48;;
19260;SDS011;9764;48.114;11.670;2023-07-13T05:09:05;1.77;;;1.20;;
19260;SDS011;9764;48.114;11.670;2023-07-13T05:11:34;2.65;;;1.52;;
19260;SDS011;9764;48.114;11.670;2023-07-13T05:14:02;1.80;;;1.20;;
19260;SDS011;9764;48.114;11.670;2023-07-13T05:16:30;2.22;;;1.33;;
19260;SDS011;9764;48.114;11.670;2023-07-13T05:18:59;3.22;;;1.60;;
19260;SDS011;9764;48.114;11.670;2023-07-13T05:21:29;4.03;;;1.55;;
19260;SDS011;9764;48.114;11.670;2023-07-13T05:23:57;2.42;;;1.52;;
19260;SDS011;9764;48.114;11.670;2023-07-13T05:26:36;3.85;;;2.20;;
19260;SDS011;9764;48.114;11.670;2023-07-13T05:29:04;1.75;;;1.40;;
19260;SDS011;9764;48.114;11.670;2023-07-13T05:31:33;4.68;;;1.75;;
19260;SDS011;9764;48.114;11.670;2023-07-13T05:34:02;3.20;;;1.85;;
19260;SDS011;9764;48.114;11.670;2023-07-13T05:36:32;1.95;;;1.27;;
19260;SDS011;9764;48.114;11.670;2023-07-13T05:39:00;3.05;;;1.60;;
19260;SDS011;9764;48.114;11.670;2023-07-13T05:41:28;4.03;;;1.70;;
19260;SDS011;9764;48.114;11.670;2023-07-13T05:43:57;4.72;;;1.80;;
19260;SDS011;9764;48.114;11.670;2023-07-13T05:46:25;3.30;;;1.50;;
19260;SDS011;9764;48.114;11.670;2023-07-13T05:48:53;1.65;;;1.33;;
19260;SDS011;9764;48.114;11.670;2023-07-13T05:51:21;3.85;;;1.63;;
19260;SDS011;9764;48.114;11.670;2023-07-13T05:53:51;2.92;;;1.52;;
19260;SDS011;9764;48.114;11.670;2023-07-13T05:56:19;3.00;;;1.48;;
19260;SDS011;9764;48.114;11.670;2023-07-13T05:58:48;2.28;;;1.30;;
19260;SDS011;9764;48.114;11.670;2023-07-13T06:01:16;2.97;;;1.38;;
19260;SDS011;9764;48.114;11.670;2023-07-13T06:03:46;2.15;;;1.30;;
19260;SDS011;9764;48.114;11.670;2023-07-13T06:06:15;3.92;;;1.40;;
19260;SDS011;9764;48.114;11.670;2023-07-13T06:08:44;1.73;;;1.30;;
19260;SDS011;9764;48.114;11.670;2023-07-13T06:11:15;2.05;;;1.33;;
19260;SDS011;9764;48.114;11.670;2023-07-13T06:13:47;2.78;;;1.30;;
19260;SDS011;9764;48.114;11.670;2023-07-13T06:16:16;2.60;;;1.20;;
19260;SDS011;9764;48.114;11.670;2023-07-13T06:18:44;2.40;;;1.17;;
19260;SDS011;9764;48.114;11.670;2023-07-13T06:21:15;2.28;;;1.58;;
19260;SDS011;9764;48.114;11.670;2023-07-13T06:23:46;2.78;;;1.00;;
19260;SDS011;9764;48.114;11.670;2023-07-13T06:26:18;1.73;;;1.23;;
19260;SDS011;9764;48.114;11.670;2023-07-13T06:28:47;2.65;;;1.35;;
19260;SDS011;9764;48.114;11.670;2023-07-13T06:31:15;2.88;;;1.20;;
19260;SDS011;9764;48.114;11.670;2023-07-13T06:33:44;1.98;;;1.10;;
19260;SDS011;9764;48.114;11.670;2023-07-13T06:36:12;1.88;;;1.15;;
19260;SDS011;9764;48.114;11.670;2023-07-13T06:38:41;3.13;;;1.65;;
19260;SDS011;9764;48.114;11.670;2023-07-13T06:41:09;3.70;;;1.20;;
19260;SDS011;9764;48.114;11.670;2023-07-13T06:43:39;3.00;;;1.02;;
19260;SDS011;9764;48.114;11.670;2023-07-13T06:46:07;3.58;;;1.40;;
19260;SDS011;9764;48.114;11.670;2023-07-13T06:48:36;2.35;;;1.23;;
19260;SDS011;9764;48.114;11.670;2023-07-13T06:51:04;1.73;;;1.10;;
19260;SDS011;9764;48.114;11.670;2023-07-13T06:53:33;2.80;;;1.42;;
19260;SDS011;9764;48.114;11.670;2023-07-13T06:56:01;2.70;;;1.25;;
19260;SDS011;9764;48.114;11.670;2023-07-13T06:58:30;3.25;;;1.23;;
19260;SDS011;9764;48.114;11.670;2023-07-13T07:01:00;1.63;;;1.00;;
19260;SDS011;9764;48.114;11.670;2023-07-13T07:03:28;1.42;;;0.98;;
19260;SDS011;9764;48.114;11.670;2023-07-13T07:05:59;1.48;;;0.93;;
19260;SDS011;9764;48.114;11.670;2023-07-13T07:08:28;1.58;;;1.08;;
19260;SDS011;9764;48.114;11.670;2023-07-13T07:10:56;2.35;;;1.08;;
19260;SDS011;9764;48.114;11.670;2023-07-13T07:13:25;2.50;;;1.10;;
19260;SDS011;9764;48.114;11.670;2023-07-13T07:15:55;2.03;;;1.17;;
19260;SDS011;9764;48.114;11.670;2023-07-13T07:18:24;2.35;;;0.80;;
19260;SDS011;9764;48.114;11.670;2023-07-13T07:20:52;3.30;;;1.20;;
19260;SDS011;9764;48.114;11.670;2023-07-13T07:23:21;3.42;;;1.30;;
19260;SDS011;9764;48.114;11.670;2023-07-13T07:25:49;2.28;;;1.10;;
19260;SDS011;9764;48.114;11.670;2023-07-13T07:28:18;1.58;;;0.90;;
19260;SDS011;9764;48.114;11.670;2023-07-13T07:30:52;3.17;;;0.98;;
19260;SDS011;9764;48.114;11.670;2023-07-13T07:33:42;1.88;;;0.90;;
19260;SDS011;9764;48.114;11.670;2023-07-13T07:36:10;3.30;;;1.17;;
19260;SDS011;9764;48.114;11.670;2023-07-13T07:38:42;2.08;;;1.08;;
19260;SDS011;9764;48.114;11.670;2023-07-13T07:41:10;1.52;;;0.95;;
19260;SDS011;9764;48.114;11.670;2023-07-13T07:43:42;2.10;;;1.00;;
19260;SDS011;9764;48.114;11.670;2023-07-13T07:46:10;1.83;;;1.15;;
19260;SDS011;9764;48.114;11.670;2023-07-13T07:48:39;1.35;;;1.05;;
19260;SDS011;9764;48.114;11.670;2023-07-13T07:51:08;1.98;;;1.20;;
19260;SDS011;9764;48.114;11.670;2023-07-13T07:53:37;1.55;;;0.95;;
19260;SDS011;9764;48.114;11.670;2023-07-13T07:56:05;2.88;;;1.00;;
19260;SDS011;9764;48.114;11.670;2023-07-13T07:58:53;3.10;;;1.00;;
19260;SDS011;9764;48.114;11.670;2023-07-13T08:01:24;3.55;;;1.10;;
19260;SDS011;9764;48.114;11.670;2023-07-13T08:03:55;2.50;;;1.13;;
19260;SDS011;9764;48.114;11.670;2023-07-13T08:06:28;1.80;;;1.23;;
19260;SDS011;9764;48.114;11.670;2023-07-13T08:09:11;1.95;;;1.10;;
19260;SDS011;9764;48.114;11.670;2023-07-13T08:11:39;3.60;;;1.13;;
19260;SDS011;9764;48.114;11.670;2023-07-13T08:14:10;2.25;;;1.10;;
19260;SDS011;9764;48.114;11.670;2023-07-13T08:16:38;1.95;;;0.90;;
19260;SDS011;9764;48.114;11.670;2023-07-13T08:19:07;2.30;;;0.90;;
19260;SDS011;9764;48.114;11.670;2023-07-13T08:21:37;2.05;;;1.00;;
19260;SDS011;9764;48.114;11.670;2023-07-13T08:24:06;1.90;;;1.02;;
19260;SDS011;9764;48.114;11.670;2023-07-13T08:26:34;2.83;;;1.27;;
19260;SDS011;9764;48.114;11.670;2023-07-13T08:29:03;2.45;;;0.80;;
19260;SDS011;9764;48.114;11.670;2023-07-13T08:31:32;1.63;;;1.05;;
19260;SDS011;9764;48.114;11.670;2023-07-13T08:34:00;1.83;;;0.90;;
19260;SDS011;9764;48.114;11.670;2023-07-13T08:36:29;3.13;;;0.95;;
19260;SDS011;9764;48.114;11.670;2023-07-13T08:38:59;0.90;;;0.85;;
19260;SDS011;9764;48.114;11.670;2023-07-13T08:41:27;1.40;;;0.90;;
19260;SDS011;9764;48.114;11.670;2023-07-13T08:43:59;3.38;;;1.15;;
19260;SDS011;9764;48.114;11.670;2023-07-13T08:46:32;2.67;;;1.00;;
19260;SDS011;9764;48.114;11.670;2023-07-13T08:49:04;2.28;;;1.02;;
19260;SDS011;9764;48.114;11.670;2023-07-13T08:51:38;2.42;;;1.05;;
19260;SDS011;9764;48.114;11.670;2023-07-13T08:54:19;2.72;;;1.02;;
19260;SDS011;9764;48.114;11.670;2023-07-13T08:56:50;3.05;;;1.10;;
19260;SDS011;9764;48.114;11.670;2023-07-13T08:59:21;2.17;;;0.90;;
19260;SDS011;9764;48.114;11.670;2023-07-13T09:01:57;3.97;;;1.20;;
19260;SDS011;9764;48.114;11.670;2023-07-13T09:04:38;1.45;;;0.95;;
19260;SDS011;9764;48.114;11.670;2023-07-13T09:07:12;1.88;;;0.90;;
19260;SDS011;9764;48.114;11.670;2023-07-13T09:09:53;3.08;;;1.10;;
19260;SDS011;9764;48.114;11.670;2023-07-13T09:12:33;2.70;;;1.10;;
19260;SDS011;9764;48.114;11.670;2023-07-13T09:15:20;2.65;;;1.40;;
19260;SDS011;9764;48.114;11.670;2023-07-13T09:17:53;2.10;;;1.10;;
19260;SDS011;9764;48.114;11.670;2023-07-13T09:20:26;2.42;;;1.00;;
19260;SDS011;9764;48.114;11.670;2023-07-13T09:22:58;2.45;;;1.00;;
19260;SDS011;9764;48.114;11.670;2023-07-13T09:25:31;2.80;;;1.00;;
19260;SDS011;9764;48.114;11.670;2023-07-13T09:28:02;2.95;;;0.90;;
19260;SDS011;9764;48.114;11.670;2023-07-13T09:30:38;3.22;;;1.08;;
19260;SDS011;9764;48.114;11.670;2023-07-13T09:33:12;2.63;;;1.00;;
19260;SDS011;9764;48.114;11.670;2023-07-13T09:35:41;2.90;;;0.85;;
19260;SDS011;9764;48.114;11.670;2023-07-13T09:38:13;3.83;;;1.02;;
19260;SDS011;9764;48.114;11.670;2023-07-13T09:40:46;2.35;;;1.00;;
19260;SDS011;9764;48.114;11.670;2023-07-13T09:43:36;1.80;;;1.00;;
19260;SDS011;9764;48.114;11.670;2023-07-13T09:46:07;2.25;;;0.93;;
19260;SDS011;9764;48.114;11.670;2023-07-13T09:48:48;3.35;;;1.30;;
19260;SDS011;9764;48.114;11.670;2023-07-13T09:51:17;1.58;;;1.10;;
19260;SDS011;9764;48.114;11.670;2023-07-13T09:53:45;1.58;;;1.00;;
19260;SDS011;9764;48.114;11.670;2023-07-13T09:56:21;2.58;;;0.93;;
19260;SDS011;9764;48.114;11.670;2023-07-13T09:58:51;1.75;;;0.85;;
19260;SDS011;9764;48.114;11.670;2023-07-13T10:01:30;2.03;;;0.98;;
19260;SDS011;9764;48.114;11.670;2023-07-13T10:04:02;3.30;;;1.10;;
19260;SDS011;9764;48.114;11.670;2023-07-13T10:06:38;1.52;;;0.98;;
19260;SDS011;9764;48.114;11.670;2023-07-13T10:09:09;3.15;;;1.27;;
19260;SDS011;9764;48.114;11.670;2023-07-13T10:11:43;2.05;;;0.95;;
19260;SDS011;9764;48.114;11.670;2023-07-13T10:14:14;2.28;;;0.98;;
19260;SDS011;9764;48.114;11.670;2023-07-13T10:16:44;1.88;;;1.20;;
19260;SDS011;9764;48.114;11.670;2023-07-13T10:19:14;1.67;;;0.90;;
19260;SDS011;9764;48.114;11.670;2023-07-13T10:21:50;1.27;;;0.80;;
19260;SDS011;9764;48.114;11.670;2023-07-13T10:24:22;3.20;;;0.98;;
19260;SDS011;9764;48.114;11.670;2023-07-13T10:26:55;2.03;;;0.90;;
19260;SDS011;9764;48.114;11.670;2023-07-13T10:29:28;1.80;;;1.02;;
19260;SDS011;9764;48.114;11.670;2023-07-13T10:32:01;1.65;;;0.90;;
19260;SDS011;9764;48.114;11.670;2023-07-13T10:34:31;3.83;;;0.80;;
19260;SDS011;9764;48.114;11.670;2023-07-13T10:36:59;2.38;;;1.10;;
19260;SDS011;9764;48.114;11.670;2023-07-13T10:39:29;1.92;;;0.93;;
19260;SDS011;9764;48.114;11.670;2023-07-13T10:42:01;2.30;;;1.00;;
19260;SDS011;9764;48.114;11.670;2023-07-13T10:44:33;1.75;;;0.70;;
19260;SDS011;9764;48.114;11.670;2023-07-13T10:47:03;2.60;;;0.88;;
19260;SDS011;9764;48.114;11.670;2023-07-13T10:49:35;1.25;;;0.90;;
19260;SDS011;9764;48.114;11.670;2023-07-13T10:52:04;2.45;;;1.10;;
19260;SDS011;9764;48.114;11.670;2023-07-13T10:54:33;3.17;;;0.80;;
19260;SDS011;9764;48.114;11.670;2023-07-13T10:57:10;1.88;;;1.00;;
19260;SDS011;9764;48.114;11.670;2023-07-13T10:59:46;3.58;;;1.05;;
19260;SDS011;9764;48.114;11.670;2023-07-13T11:02:26;6.38;;;1.17;;
19260;SDS011;9764;48.114;11.670;2023-07-13T11:04:56;1.48;;;0.93;;
19260;SDS011;9764;48.114;11.670;2023-07-13T11:07:26;3.42;;;1.20;;
19260;SDS011;9764;48.114;11.670;2023-07-13T11:09:56;1.58;;;1.10;;
19260;SDS011;9764;48.114;11.670;2023-07-13T11:15:30;1.95;;;0.90;;
19260;SDS011;9764;48.114;11.670;2023-07-13T11:18:19;1.95;;;1.20;;
19260;SDS011;9764;48.114;11.670;2023-07-13T11:20:50;2.45;;;1.13;;
19260;SDS011;9764;48.114;11.670;2023-07-13T11:23:20;2.60;;;1.30;;
19260;SDS011;9764;48.114;11.670;2023-07-13T11:25:55;2.65;;;1.00;;
19260;SDS011;9764;48.114;11.670;2023-07-13T11:28:25;2.08;;;0.80;;
19260;SDS011;9764;48.114;11.670;2023-07-13T11:31:01;3.13;;;1.00;;
19260;SDS011;9764;48.114;11.670;2023-07-13T11:36:30;2.00;;;0.95;;
19260;SDS011;9764;48.114;11.670;2023-07-13T11:39:05;1.98;;;1.10;;
19260;SDS011;9764;48.114;11.670;2023-07-13T11:41:45;2.45;;;1.23;;
19260;SDS011;9764;48.114;11.670;2023-07-13T11:44:19;2.63;;;1.02;;
19260;SDS011;9764;48.114;11.670;2023-07-13T11:46:50;2.13;;;1.10;;
19260;SDS011;9764;48.114;11.670;2023-07-13T11:49:22;3.90;;;0.70;;
19260;SDS011;9764;48.114;11.670;2023-07-13T11:51:53;1.55;;;0.95;;
19260;SDS011;9764;48.114;11.670;2023-07-13T11:54:24;2.38;;;1.15;;
19260;SDS011;9764;48.114;11.670;2023-07-13T11:56:55;1.50;;;1.00;;
19260;SDS011;9764;48.114;11.670;2023-07-13T11:59:28;3.17;;;1.00;;
19260;SDS011;9764;48.114;11.670;2023-07-13T12:01:58;0.90;;;0.80;;
19260;SDS011;9764;48.114;11.670;2023-07-13T12:04:31;4.25;;;1.30;;
19260;SDS011;9764;48.114;11.670;2023-07-13T12:07:04;1.20;;;0.80;;
19260;SDS011;9764;48.114;11.670;2023-07-13T12:09:35;2.60;;;1.08;;
19260;SDS011;9764;48.114;11.670;2023-07-13T12:12:08;3.50;;;1.10;;
19260;SDS011;9764;48.114;11.670;2023-07-13T12:14:40;0.70;;;0.70;;
19260;SDS011;9764;48.114;11.670;2023-07-13T12:17:09;2.40;;;1.23;;
19260;SDS011;9764;48.114;11.670;2023-07-13T12:19:47;2.53;;;1.00;;
19260;SDS011;9764;48.114;11.670;2023-07-13T12:22:16;1.10;;;0.90;;
19260;SDS011;9764;48.114;11.670;2023-07-13T12:24:46;2.17;;;1.00;;
19260;SDS011;9764;48.114;11.670;2023-07-13T12:27:18;1.30;;;0.90;;
19260;SDS011;9764;48.114;11.670;2023-07-13T12:29:51;2.90;;;0.90;;
19260;SDS011;9764;48.114;11.670;2023-07-13T12:32:21;1.00;;;0.90;;
19260;SDS011;9764;48.114;11.670;2023-07-13T12:34:52;1.20;;;0.90;;
19260;SDS011;9764;48.114;11.670;2023-07-13T12:37:22;1.75;;;0.93;;
19260;SDS011;9764;48.114;11.670;2023-07-13T12:39:51;1.30;;;0.88;;
19260;SDS011;9764;48.114;11.670;2023-07-13T12:42:21;1.30;;;0.88;;
19260;SDS011;9764;48.114;11.670;2023-07-13T12:44:56;1.40;;;0.98;;
19260;SDS011;9764;48.114;11.670;2023-07-13T12:47:27;2.03;;;0.98;;
19260;SDS011;9764;48.114;11.670;2023-07-13T12:49:57;3.20;;;0.90;;
19260;SDS011;9764;48.114;11.670;2023-07-13T12:52:29;1.15;;;0.82;;
19260;SDS011;9764;48.114;11.670;2023-07-13T12:55:03;1.58;;;0.77;;
19260;SDS011;9764;48.114;11.670;2023-07-13T12:57:40;3.33;;;1.17;;
19260;SDS011;9764;48.114;11.670;2023-07-13T13:00:20;2.20;;;0.88;;
19260;SDS011;9764;48.114;11.670;2023-07-13T13:02:52;2.08;;;0.98;;
19260;SDS011;9764;48.114;11.670;2023-07-13T13:05:41;2.10;;;0.85;;
19260;SDS011;9764;48.114;11.670;2023-07-13T13:08:12;3.38;;;1.00;;
19260;SDS011;9764;48.114;11.670;2023-07-13T13:10:40;1.08;;;0.98;;
19260;SDS011;9764;48.114;11.670;2023-07-13T13:13:09;1.90;;;0.80;;
19260;SDS011;9764;48.114;11.670;2023-07-13T13:15:40;2.45;;;0.95;;
19260;SDS011;9764;48.114;11.670;2023-07-13T13:18:13;7.30;;;1.50;;
19260;SDS011;9764;48.114;11.670;2023-07-13T13:20:43;5.60;;;1.33;;
19260;SDS011;9764;48.114;11.670;2023-07-13T13:23:13;9.05;;;1.77;;
19260;SDS011;9764;48.114;11.670;2023-07-13T13:25:45;2.53;;;1.20;;
19260;SDS011;9764;48.114;11.670;2023-07-13T13:28:15;1.63;;;1.02;;
19260;SDS011;9764;48.114;11.670;2023-07-13T13:30:47;2.38;;;1.00;;
19260;SDS011;9764;48.114;11.670;2023-07-13T13:33:18;4.00;;;1.35;;
19260;SDS011;9764;48.114;11.670;2023-07-13T13:35:48;3.97;;;1.17;;
19260;SDS011;9764;48.114;11.670;2023-07-13T13:38:17;3.00;;;1.17;;
19260;SDS011;9764;48.114;11.670;2023-07-13T13:40:47;3.40;;;1.30;;
19260;SDS011;9764;48.114;11.670;2023-07-13T13:43:16;2.83;;;1.33;;
19260;SDS011;9764;48.114;11.670;2023-07-13T13:45:45;2.42;;;1.00;;
19260;SDS011;9764;48.114;11.670;2023-07-13T13:48:16;3.30;;;1.00;;
19260;SDS011;9764;48.114;11.670;2023-07-13T13:50:46;2.53;;;0.90;;
19260;SDS011;9764;48.114;11.670;2023-07-13T13:53:15;2.60;;;1.00;;
19260;SDS011;9764;48.114;11.670;2023-07-13T13:55:44;2.13;;;1.15;;
19260;SDS011;9764;48.114;11.670;2023-07-13T13:58:13;1.15;;;0.93;;
19260;SDS011;9764;48.114;11.670;2023-07-13T14:00:41;1.40;;;1.02;;
19260;SDS011;9764;48.114;11.670;2023-07-13T14:03:15;1.30;;;0.90;;
19260;SDS011;9764;48.114;11.670;2023-07-13T14:05:46;1.85;;;1.00;;
19260;SDS011;9764;48.114;11.670;2023-07-13T14:08:16;1.88;;;1.05;;
19260;SDS011;9764;48.114;11.670;2023-07-13T14:10:46;1.48;;;1.00;;
19260;SDS011;9764;48.114;11.670;2023-07-13T14:13:18;2.28;;;1.10;;
19260;SDS011;9764;48.114;11.670;2023-07-13T14:15:52;2.10;;;0.88;;
19260;SDS011;9764;48.114;11.670;2023-07-13T14:18:22;2.67;;;1.08;;
19260;SDS011;9764;48.114;11.670;2023-07-13T14:20:50;2.53;;;1.00;;
19260;SDS011;9764;48.114;11.670;2023-07-13T14:23:20;4.75;;;1.35;;
19260;SDS011;9764;48.114;11.670;2023-07-13T14:25:48;3.30;;;1.13;;
19260;SDS011;9764;48.114;11.670;2023-07-13T14:28:19;1.95;;;0.95;;
19260;SDS011;9764;48.114;11.670;2023-07-13T14:30:50;2.85;;;1.10;;
19260;SDS011;9764;48.114;11.670;2023-07-13T14:33:18;2.00;;;1.08;;
19260;SDS011;9764;48.114;11.670;2023-07-13T14:35:48;1.48;;;1.00;;
19260;SDS011;9764;48.114;11.670;2023-07-13T14:38:19;1.52;;;1.08;;
19260;SDS011;9764;48.114;11.670;2023-07-13T14:40:48;1.58;;;1.08;;
19260;SDS011;9764;48.114;11.670;2023-07-13T14:43:16;1.58;;;1.10;;
19260;SDS011;9764;48.114;11.670;2023-07-13T14:45:46;3.28;;;1.20;;
19260;SDS011;9764;48.114;11.670;2023-07-13T14:48:17;2.13;;;1.00;;
19260;SDS011;9764;48.114;11.670;2023-07-13T14:50:52;1.35;;;0.80;;
19260;SDS011;9764;48.114;11.670;2023-07-13T14:53:22;1.58;;;1.00;;
19260;SDS011;9764;48.114;11.670;2023-07-13T14:55:54;2.95;;;1.00;;
19260;SDS011;9764;48.114;11.670;2023-07-13T14:58:22;2.63;;;1.10;;
19260;SDS011;9764;48.114;11.670;2023-07-13T15:00:51;2.00;;;0.98;;
19260;SDS011;9764;48.114;11.670;2023-07-13T15:03:23;1.45;;;0.82;;
19260;SDS011;9764;48.114;11.670;2023-07-13T15:05:54;1.17;;;0.88;;
19260;SDS011;9764;48.114;11.670;2023-07-13T15:08:22;1.25;;;1.00;;
19260;SDS011;9764;48.114;11.670;2023-07-13T15:10:50;2.80;;;1.00;;
19260;SDS011;9764;48.114;11.670;2023-07-13T15:13:19;1.33;;;0.98;;
19260;SDS011;9764;48.114;11.670;2023-07-13T15:15:50;1.13;;;0.98;;
19260;SDS011;9764;48.114;11.670;2023-07-13T15:18:21;1.20;;;1.00;;